DW4230 Weather Reports


time (UTC)temp
C
wind
direction
speed
KPH
gust
KPH
rain 1hr
cm
rain 24hr
cm
rain mn
cm
humidity
%
barometer
mb
20211017154530 16 6 4.8 19.3 0.00 0.71 0.28 70 1005.2
20211017153023 15 323 6.4 22.5 0.00 0.71 0.28 72 1005.4
20211017151526 15 24 6.4 22.5 0.00 0.71 0.28 73 1005.4
20211017150135 15 316 8.0 22.5 0.00 0.71 0.28 75 1005.5
20211017144508 15 23 9.7 22.5 0.00 0.71 0.28 77 1005.3
20211017143112 15 345 12.9 30.6 0.00 0.71 0.28 78 1005.2
20211017141613 14 23 8.0 24.1 0.00 0.71 0.28 80 1005.3
20211017140043 14 6 8.0 20.9 0.00 0.71 0.28 80 1005.5
20211017134740 13 316 8.0 24.1 0.00 0.71 0.28 82 1005.5
20211017133040 13 332 12.9 25.7 0.00 0.71 0.28 82 1005.4
20211017131605 13 7 11.3 35.4 0.00 0.71 0.28 83 1005.4
20211017130015 13 347 4.8 25.7 0.00 0.71 0.28 85 1005.4
20211017124530 13 329 8.0 22.5 0.00 0.71 0.28 87 1005.2
20211017123102 13 348 8.0 22.5 0.00 0.71 0.28 88 1005.2
20211017121528 13 343 6.4 20.9 0.00 0.71 0.28 90 1005.2
20211017114610 12 4 3.2 20.9 0.00 0.71 0.28 91 1004.8
20211017113100 13 279 3.2 22.5 0.00 0.71 0.28 92 1004.7
20211017111601 13 4 4.8 22.5 0.00 0.71 0.28 93 1004.4
20211017110110 13 331 6.4 14.5 0.00 0.71 0.28 94 1004.4
20211017104521 13 346 4.8 14.5 0.00 0.71 0.28 94 1004.6
20211017103015 13 341 4.8 19.3 0.00 0.71 0.28 94 1004.1
20211017101623 13 320 1.6 12.9 0.00 0.71 0.28 94 1004.1
20211017100102 13 14 6.4 17.7 0.05 0.71 0.28 95 1004.1
20211017094632 13 333 4.8 14.5 0.08 0.71 0.28 95 1004.3
20211017093006 13 289 6.4 14.5 0.10 0.71 0.28 95 1004.9
20211017091829 14 35 8.0 12.9 0.13 0.71 0.28 95 1002.0
20211017090200 14 341 6.4 16.1 0.13 0.66 0.23 95 1004.2
20211017084544 14 289 6.4 16.1 0.10 0.64 0.20 95 1004.8
20211017083039 14 328 3.2 11.3 0.08 0.61 0.18 95 1003.7
20211017080243 15 281 4.8 11.3 0.05 0.53 0.10 94 1003.9
20211017074558 15 4 6.4 14.5 0.08 0.53 0.10 94 1002.6
20211017073102 15 2 3.2 11.3 0.08 0.53 0.10 94 1002.9
20211017071604 15 356 1.6 9.7 0.03 0.48 0.05 94 1003.3
20211017070100 15 347 3.2 14.5 0.03 0.48 0.05 92 1003.0
20211017064539 15 353 8.0 20.9 0.00 0.46 0.03 92 1003.2
20211017063012 15 14 4.8 29.0 0.00 0.46 0.03 92 1002.9
20211017061540 16 360 11.3 24.1 0.00 0.46 0.03 92 1002.9
20211017060108 16 354 4.8 24.1 0.03 0.46 0.03 92 1003.4
20211017054600 16 13 9.7 29.0 0.03 0.46 0.03 93 1003.0
20211017053038 16 346 11.3 29.0 0.03 0.46 0.03 93 1003.4
20211017051501 16 25 9.7 29.0 0.03 0.46 0.03 92 1003.1
20211017050129 18 358 14.5 33.8 0.00 0.43 0.00 90 1003.2
20211017044601 20 258 12.9 29.0 0.00 0.43 0.00 95 1002.4
20211017043028 20 214 12.9 29.0 0.00 0.43 0.00 95 1002.6
20211017041621 20 235 16.1 29.0 0.00 0.43 0.00 95 1002.8
20211017040016 20 268 14.5 25.7 0.05 0.43 0.43 95 1003.0
20211017034648 20 124 16.1 25.7 0.08 0.43 0.43 95 1003.3
20211017033049 20 227 14.5 27.4 0.36 0.43 0.43 95 1003.6
20211017030114 20 237 24.1 43.5 0.30 0.38 0.38 95 1003.6
20211017024551 20 222 8.0 48.3 0.33 0.36 0.36 95 1003.9
20211017023051 20 241 14.5 35.4 0.08 0.08 0.08 95 1003.9
20211017021528 20 198 16.1 30.6 0.08 0.08 0.08 94 1004.1
20211017020130 20 200 14.5 30.6 0.08 0.08 0.08 94 1004.2
20211017014708 20 198 17.7 32.2 0.03 0.03 0.03 92 1004.7
20211017013110 21 202 16.1 29.0 0.00 0.00 0.00 90 1004.8
20211017011633 21 193 20.9 38.6 0.00 0.00 0.00 90 1004.9
20211017010030 21 173 16.1 27.4 0.00 0.00 0.00 90 1005.0
20211017004629 21 214 16.1 35.4 0.00 0.00 0.00 90 1005.1
20211017003012 21 124 14.5 30.6 0.00 0.00 0.00 91 1005.2
20211017001528 21 200 17.7 30.6 0.00 0.00 0.00 92 1005.2
20211017000049 20 200 16.1 29.0 0.00 0.00 0.00 92 1005.3
20211016234504 20 205 11.3 30.6 0.00 0.00 0.00 92 1005.5
20211016233011 20 201 16.1 35.4 0.00 0.00 0.00 92 1005.6
20211016230157 20 178 14.5 29.0 0.00 0.00 0.00 93 1005.9
20211016224554 20 222 12.9 33.8 0.00 0.00 0.00 93 1005.8
20211016223032 20 203 14.5 29.0 0.00 0.00 0.00 93 1005.8
20211016221528 20 172 11.3 30.6 0.00 0.00 0.00 94 1006.0
20211016220009 20 190 14.5 30.6 0.00 0.00 0.00 93 1006.1
20211016214535 20 200 14.5 25.7 0.00 0.00 0.00 93 1006.0
20211016213006 20 198 14.5 30.6 0.00 0.00 0.00 92 1006.1
20211016211505 20 192 11.3 35.4 0.00 0.00 0.00 92 1006.1
20211016210105 20 124 16.1 29.0 0.00 0.00 0.00 92 1006.4
20211016204642 20 293 14.5 35.4 0.00 0.00 0.00 91 1006.4
20211016203309 21 177 12.9 29.0 0.00 0.00 0.00 91 1006.7
20211016201510 21 171 19.3 30.6 0.00 0.00 0.00 90 1006.8
20211016193053 21 223 11.3 27.4 0.00 0.00 0.00 89 1007.0
20211016191526 21 241 8.0 24.1 0.00 0.00 0.00 88 1007.3
20211016190024 21 241 12.9 25.7 0.00 0.00 0.00 86 1007.2
20211016184540 21 225 14.5 29.0 0.00 0.00 0.00 87 1007.2
20211016183007 21 243 11.3 29.0 0.00 0.00 0.00 88 1007.3
20211016180103 21 170 14.5 33.8 0.00 0.00 0.00 87 1007.8
20211016174528 21 200 12.9 24.1 0.00 0.00 0.00 86 1008.0
20211016173305 21 269 12.9 25.7 0.00 0.00 0.00 86 1008.5
20211016171552 21 237 12.9 30.6 0.00 0.00 0.00 85 1008.7
20211016170009 21 243 16.1 35.4 0.00 0.00 0.00 86 1008.6
20211016163142 21 247 14.5 25.7 0.00 0.00 0.00 86 1009.3
20211016161610 21 191 12.9 30.6 0.00 0.00 0.00 86 1009.3